sensor_id;sensor_type;location;lat;lon;timestamp;pressure;altitude;pressure_sealevel;temperature;humidity
76201;BME280;64981;52.930;9.266;2023-07-30T00:00:48;100479.97;;;17.23;78.75
76201;BME280;64981;52.930;9.266;2023-07-30T00:03:15;100483.06;;;17.20;78.89
76201;BME280;64981;52.930;9.266;2023-07-30T00:05:41;100484.69;;;17.14;79.26
76201;BME280;64981;52.930;9.266;2023-07-30T00:08:06;100483.69;;;17.09;79.59
76201;BME280;64981;52.930;9.266;2023-07-30T00:10:35;100488.78;;;17.17;79.09
76201;BME280;64981;52.930;9.266;2023-07-30T00:13:01;100484.09;;;17.12;78.87
76201;BME280;64981;52.930;9.266;2023-07-30T00:15:26;100489.44;;;17.12;78.64
76201;BME280;64981;52.930;9.266;2023-07-30T00:17:52;100490.69;;;17.10;78.72
76201;BME280;64981;52.930;9.266;2023-07-30T00:20:17;100489.63;;;17.11;78.54
76201;BME280;64981;52.930;9.266;2023-07-30T00:22:43;100490.28;;;17.13;78.81
76201;BME280;64981;52.930;9.266;2023-07-30T00:25:09;100486.19;;;17.10;79.33
76201;BME280;64981;52.930;9.266;2023-07-30T00:27:34;100492.97;;;17.06;79.75
76201;BME280;64981;52.930;9.266;2023-07-30T00:30:00;100485.94;;;16.99;79.63
76201;BME280;64981;52.930;9.266;2023-07-30T00:32:25;100498.72;;;17.03;80.08
76201;BME280;64981;52.930;9.266;2023-07-30T00:34:51;100489.03;;;16.96;80.04
76201;BME280;64981;52.930;9.266;2023-07-30T00:37:16;100484.94;;;17.06;79.22
76201;BME280;64981;52.930;9.266;2023-07-30T00:39:42;100493.56;;;17.08;79.52
76201;BME280;64981;52.930;9.266;2023-07-30T00:42:07;100498.44;;;17.18;79.26
76201;BME280;64981;52.930;9.266;2023-07-30T00:44:33;100490.66;;;17.16;79.74
76201;BME280;64981;52.930;9.266;2023-07-30T00:46:59;100481.22;;;17.14;79.84
76201;BME280;64981;52.930;9.266;2023-07-30T00:49:25;100493.97;;;17.12;80.13
76201;BME280;64981;52.930;9.266;2023-07-30T00:51:51;100497.66;;;17.11;80.22
76201;BME280;64981;52.930;9.266;2023-07-30T00:54:17;100490.69;;;17.10;79.50
76201;BME280;64981;52.930;9.266;2023-07-30T00:56:51;100494.94;;;17.24;79.19
76201;BME280;64981;52.930;9.266;2023-07-30T00:59:18;100494.34;;;17.15;79.58
76201;BME280;64981;52.930;9.266;2023-07-30T01:01:46;100465.69;;;16.91;79.85
76201;BME280;64981;52.930;9.266;2023-07-30T01:04:14;100507.09;;;17.20;79.29
76201;BME280;64981;52.930;9.266;2023-07-30T01:06:40;100510.78;;;17.12;79.59
76201;BME280;64981;52.930;9.266;2023-07-30T01:09:06;100502.56;;;17.14;79.75
76201;BME280;64981;52.930;9.266;2023-07-30T01:11:33;100503.63;;;17.13;80.06
76201;BME280;64981;52.930;9.266;2023-07-30T01:13:59;100509.75;;;17.20;79.45
76201;BME280;64981;52.930;9.266;2023-07-30T01:16:25;100512.44;;;17.13;79.83
76201;BME280;64981;52.930;9.266;2023-07-30T01:18:51;100510.13;;;17.23;79.19
76201;BME280;64981;52.930;9.266;2023-07-30T01:21:17;100506.69;;;17.16;79.71
76201;BME280;64981;52.930;9.266;2023-07-30T01:23:43;100509.16;;;17.11;80.15
76201;BME280;64981;52.930;9.266;2023-07-30T01:26:20;100498.72;;;17.03;80.38
76201;BME280;64981;52.930;9.266;2023-07-30T01:28:49;100497.66;;;17.11;80.27
76201;BME280;64981;52.930;9.266;2023-07-30T01:31:17;100508.16;;;17.06;80.33
76201;BME280;64981;52.930;9.266;2023-07-30T01:33:47;100511.41;;;17.14;80.08
76201;BME280;64981;52.930;9.266;2023-07-30T01:36:15;100517.38;;;17.10;80.61
76201;BME280;64981;52.930;9.266;2023-07-30T01:38:43;100518.41;;;17.09;80.62
76201;BME280;64981;52.930;9.266;2023-07-30T01:41:09;100517.78;;;17.13;80.34
76201;BME280;64981;52.930;9.266;2023-07-30T01:43:35;100503.38;;;17.14;79.92
76201;BME280;64981;52.930;9.266;2023-07-30T01:46:00;100512.78;;;17.23;79.59
76201;BME280;64981;52.930;9.266;2023-07-30T01:48:26;100506.69;;;17.16;80.18
76201;BME280;64981;52.930;9.266;2023-07-30T01:50:52;100511.59;;;17.19;80.25
76201;BME280;64981;52.930;9.266;2023-07-30T01:53:17;100517.13;;;17.25;79.51
76201;BME280;64981;52.930;9.266;2023-07-30T01:55:43;100531.72;;;17.15;80.42
76201;BME280;64981;52.930;9.266;2023-07-30T01:58:12;100526.16;;;17.17;80.25
76201;BME280;64981;52.930;9.266;2023-07-30T02:00:38;100526.13;;;17.30;79.29
76201;BME280;64981;52.930;9.266;2023-07-30T02:03:04;100529.22;;;17.27;79.44
76201;BME280;64981;52.930;9.266;2023-07-30T02:05:30;100525.94;;;17.25;79.31
76201;BME280;64981;52.930;9.266;2023-07-30T02:07:56;100527.78;;;17.31;79.38
76201;BME280;64981;52.930;9.266;2023-07-30T02:10:23;100528.03;;;17.23;79.30
76201;BME280;64981;52.930;9.266;2023-07-30T02:12:49;100537.88;;;17.23;79.63
76201;BME280;64981;52.930;9.266;2023-07-30T02:15:16;100512.66;;;17.05;79.92
76201;BME280;64981;52.930;9.266;2023-07-30T02:17:41;100521.28;;;17.07;79.77
76201;BME280;64981;52.930;9.266;2023-07-30T02:20:08;100536.88;;;17.10;80.01
76201;BME280;64981;52.930;9.266;2023-07-30T02:22:34;100539.31;;;17.12;79.99
76201;BME280;64981;52.930;9.266;2023-07-30T02:24:59;100525.41;;;17.03;79.72
76201;BME280;64981;52.930;9.266;2023-07-30T02:27:25;100519.66;;;17.00;79.69
76201;BME280;64981;52.930;9.266;2023-07-30T02:29:51;100542.41;;;17.09;79.55
76201;BME280;64981;52.930;9.266;2023-07-30T02:32:16;100540.75;;;17.08;79.61
76201;BME280;64981;52.930;9.266;2023-07-30T02:34:42;100535.44;;;17.08;79.38
76201;BME280;64981;52.930;9.266;2023-07-30T02:37:08;100520.66;;;16.92;79.54
76201;BME280;64981;52.930;9.266;2023-07-30T02:39:34;100537.31;;;17.07;79.01
76201;BME280;64981;52.930;9.266;2023-07-30T02:41:59;100529.31;;;17.01;78.95
76201;BME280;64981;52.930;9.266;2023-07-30T02:44:25;100527.03;;;16.91;79.52
76201;BME280;64981;52.930;9.266;2023-07-30T02:46:51;100530.53;;;16.92;79.44
76201;BME280;64981;52.930;9.266;2023-07-30T02:49:17;100522.34;;;16.74;79.74
76201;BME280;64981;52.930;9.266;2023-07-30T02:51:42;100528.91;;;16.71;80.08
76201;BME280;64981;52.930;9.266;2023-07-30T02:54:14;100535.06;;;16.72;79.91
76201;BME280;64981;52.930;9.266;2023-07-30T02:56:39;100536.50;;;16.67;80.31
76201;BME280;64981;52.930;9.266;2023-07-30T02:59:05;100537.97;;;16.63;79.99
76201;BME280;64981;52.930;9.266;2023-07-30T03:01:31;100507.19;;;16.41;79.96
76201;BME280;64981;52.930;9.266;2023-07-30T03:03:57;100535.88;;;16.52;80.75
76201;BME280;64981;52.930;9.266;2023-07-30T03:06:22;100535.06;;;16.52;80.71
76201;BME280;64981;52.930;9.266;2023-07-30T03:08:48;100543.47;;;16.55;80.48
76201;BME280;64981;52.930;9.266;2023-07-30T03:11:13;100541.41;;;16.57;80.40
76201;BME280;64981;52.930;9.266;2023-07-30T03:13:39;100525.63;;;16.49;79.95
76201;BME280;64981;52.930;9.266;2023-07-30T03:16:04;100540.41;;;16.52;80.34
76201;BME280;64981;52.930;9.266;2023-07-30T03:18:30;100543.06;;;16.52;80.39
76201;BME280;64981;52.930;9.266;2023-07-30T03:20:59;100538.56;;;16.59;80.10
76201;BME280;64981;52.930;9.266;2023-07-30T03:23:26;100541.84;;;16.54;80.97
76201;BME280;64981;52.930;9.266;2023-07-30T03:25:51;100513.72;;;16.39;81.02
76201;BME280;64981;52.930;9.266;2023-07-30T03:28:17;100538.56;;;16.46;80.69
76201;BME280;64981;52.930;9.266;2023-07-30T03:30:43;100544.72;;;16.46;80.26
76201;BME280;64981;52.930;9.266;2023-07-30T03:33:08;100542.66;;;16.48;80.00
76201;BME280;64981;52.930;9.266;2023-07-30T03:35:34;100550.66;;;16.48;80.07
76201;BME280;64981;52.930;9.266;2023-07-30T03:37:59;100546.97;;;16.49;79.90
76201;BME280;64981;52.930;9.266;2023-07-30T03:40:25;100510.66;;;16.15;80.66
76201;BME280;64981;52.930;9.266;2023-07-30T03:42:51;100546.13;;;16.42;80.61
76201;BME280;64981;52.930;9.266;2023-07-30T03:45:16;100549.03;;;16.41;80.62
76201;BME280;64981;52.930;9.266;2023-07-30T03:47:43;100549.84;;;16.41;80.47
76201;BME280;64981;52.930;9.266;2023-07-30T03:50:09;100553.53;;;16.40;80.53
76201;BME280;64981;52.930;9.266;2023-07-30T03:52:34;100556.00;;;16.35;80.88
76201;BME280;64981;52.930;9.266;2023-07-30T03:55:00;100559.25;;;16.31;80.82
76201;BME280;64981;52.930;9.266;2023-07-30T03:57:25;100566.03;;;16.33;80.74
76201;BME280;64981;52.930;9.266;2023-07-30T03:59:51;100566.03;;;16.40;80.36
76201;BME280;64981;52.930;9.266;2023-07-30T04:02:17;100541.41;;;16.18;80.12
76201;BME280;64981;52.930;9.266;2023-07-30T04:04:43;100560.69;;;16.27;80.09
76201;BME280;64981;52.930;9.266;2023-07-30T04:07:10;100565.84;;;16.48;79.33
76201;BME280;64981;52.930;9.266;2023-07-30T04:09:36;100569.34;;;16.35;79.79
76201;BME280;64981;52.930;9.266;2023-07-30T04:12:02;100572.59;;;16.37;80.11
76201;BME280;64981;52.930;9.266;2023-07-30T04:14:27;100579.34;;;16.33;80.45
76201;BME280;64981;52.930;9.266;2023-07-30T04:16:53;100561.72;;;16.19;80.17
76201;BME280;64981;52.930;9.266;2023-07-30T04:19:18;100567.66;;;16.21;80.56
76201;BME280;64981;52.930;9.266;2023-07-30T04:21:44;100533.41;;;16.05;80.12
76201;BME280;64981;52.930;9.266;2023-07-30T04:24:10;100582.44;;;16.37;79.88
76201;BME280;64981;52.930;9.266;2023-07-30T04:26:36;100583.06;;;16.32;79.92
76201;BME280;64981;52.930;9.266;2023-07-30T04:29:01;100584.69;;;16.33;80.01
76201;BME280;64981;52.930;9.266;2023-07-30T04:31:27;100582.63;;;16.42;79.50
76201;BME280;64981;52.930;9.266;2023-07-30T04:33:52;100581.44;;;16.38;79.03
76201;BME280;64981;52.930;9.266;2023-07-30T04:36:18;100532.81;;;16.09;78.48
76201;BME280;64981;52.930;9.266;2023-07-30T04:38:44;100582.25;;;16.45;78.62
76201;BME280;64981;52.930;9.266;2023-07-30T04:41:10;100569.53;;;16.47;78.63
76201;BME280;64981;52.930;9.266;2023-07-30T04:43:35;100579.19;;;16.41;78.56
76201;BME280;64981;52.930;9.266;2023-07-30T04:46:01;100584.28;;;16.49;77.27
76201;BME280;64981;52.930;9.266;2023-07-30T04:48:27;100588.59;;;16.70;75.85
76201;BME280;64981;52.930;9.266;2023-07-30T04:50:52;100580.00;;;16.68;75.75
76201;BME280;64981;52.930;9.266;2023-07-30T04:53:18;100574.88;;;16.53;76.10
76201;BME280;64981;52.930;9.266;2023-07-30T04:55:46;100554.38;;;16.54;76.29
76201;BME280;64981;52.930;9.266;2023-07-30T04:58:11;100569.09;;;16.83;75.20
76201;BME280;64981;52.930;9.266;2023-07-30T05:00:37;100562.56;;;16.85;74.27
76201;BME280;64981;52.930;9.266;2023-07-30T05:03:02;100572.19;;;17.06;73.90
76201;BME280;64981;52.930;9.266;2023-07-30T05:05:28;100575.25;;;17.09;73.63
76201;BME280;64981;52.930;9.266;2023-07-30T05:07:54;100572.59;;;17.09;74.08
76201;BME280;64981;52.930;9.266;2023-07-30T05:10:19;100561.28;;;17.14;73.44
76201;BME280;64981;52.930;9.266;2023-07-30T05:12:45;100537.69;;;16.98;73.31
76201;BME280;64981;52.930;9.266;2023-07-30T05:15:11;100569.69;;;17.24;72.80
76201;BME280;64981;52.930;9.266;2023-07-30T05:17:36;100570.50;;;17.31;71.95
76201;BME280;64981;52.930;9.266;2023-07-30T05:20:02;100573.41;;;17.23;72.20
76201;BME280;64981;52.930;9.266;2023-07-30T05:22:28;100562.53;;;17.11;72.14
76201;BME280;64981;52.930;9.266;2023-07-30T05:24:53;100551.03;;;17.04;72.09
76201;BME280;64981;52.930;9.266;2023-07-30T05:27:19;100575.81;;;17.31;72.09
76201;BME280;64981;52.930;9.266;2023-07-30T05:29:44;100576.88;;;17.17;72.50
76201;BME280;64981;52.930;9.266;2023-07-30T05:32:10;100573.56;;;17.28;71.84
76201;BME280;64981;52.930;9.266;2023-07-30T05:34:35;100584.69;;;17.25;72.04
76201;BME280;64981;52.930;9.266;2023-07-30T05:37:01;100585.28;;;17.27;71.57
76201;BME280;64981;52.930;9.266;2023-07-30T05:39:28;100591.00;;;17.31;71.49
76201;BME280;64981;52.930;9.266;2023-07-30T05:41:54;100592.88;;;17.23;71.71
76201;BME280;64981;52.930;9.266;2023-07-30T05:44:19;100587.53;;;17.23;71.95
76201;BME280;64981;52.930;9.266;2023-07-30T05:46:45;100587.31;;;17.32;71.36
76201;BME280;64981;52.930;9.266;2023-07-30T05:49:10;100562.91;;;17.21;70.79
76201;BME280;64981;52.930;9.266;2023-07-30T05:51:36;100590.94;;;17.57;70.11
76201;BME280;64981;52.930;9.266;2023-07-30T05:54:02;100574.81;;;17.32;70.27
76201;BME280;64981;52.930;9.266;2023-07-30T05:56:27;100583.41;;;17.41;70.69
76201;BME280;64981;52.930;9.266;2023-07-30T05:58:53;100578.47;;;17.44;70.81
76201;BME280;64981;52.930;9.266;2023-07-30T06:01:19;100588.47;;;17.55;70.68
76201;BME280;64981;52.930;9.266;2023-07-30T06:03:45;100585.63;;;17.50;69.84
76201;BME280;64981;52.930;9.266;2023-07-30T06:06:10;100583.78;;;17.51;69.55
76201;BME280;64981;52.930;9.266;2023-07-30T06:08:36;100586.88;;;17.48;70.05
76201;BME280;64981;52.930;9.266;2023-07-30T06:11:03;100583.75;;;17.57;70.03
76201;BME280;64981;52.930;9.266;2023-07-30T06:13:29;100578.59;;;17.62;69.38
76201;BME280;64981;52.930;9.266;2023-07-30T06:15:54;100589.94;;;17.51;69.74
76201;BME280;64981;52.930;9.266;2023-07-30T06:18:20;100561.22;;;17.40;69.80
76201;BME280;64981;52.930;9.266;2023-07-30T06:20:46;100584.97;;;17.55;70.22
76201;BME280;64981;52.930;9.266;2023-07-30T06:23:12;100575.91;;;17.69;69.54
76201;BME280;64981;52.930;9.266;2023-07-30T06:25:37;100565.81;;;17.71;69.24
76201;BME280;64981;52.930;9.266;2023-07-30T06:28:04;100577.69;;;17.82;69.49
76201;BME280;64981;52.930;9.266;2023-07-30T06:30:30;100579.94;;;17.91;69.21
76201;BME280;64981;52.930;9.266;2023-07-30T06:32:55;100575.59;;;17.84;69.42
76201;BME280;64981;52.930;9.266;2023-07-30T06:35:21;100579.09;;;17.84;70.04
76201;BME280;64981;52.930;9.266;2023-07-30T06:37:47;100577.38;;;18.03;68.73
76201;BME280;64981;52.930;9.266;2023-07-30T06:40:12;100568.47;;;18.15;68.67
76201;BME280;64981;52.930;9.266;2023-07-30T06:42:38;100580.66;;;18.36;67.67
76201;BME280;64981;52.930;9.266;2023-07-30T06:45:04;100571.94;;;18.47;67.11
76201;BME280;64981;52.930;9.266;2023-07-30T06:47:30;100577.59;;;18.64;66.56
76201;BME280;64981;52.930;9.266;2023-07-30T06:49:55;100576.91;;;18.68;66.14
76201;BME280;64981;52.930;9.266;2023-07-30T06:52:21;100586.47;;;18.89;64.77
76201;BME280;64981;52.930;9.266;2023-07-30T06:54:47;100587.56;;;19.00;65.27
76201;BME280;64981;52.930;9.266;2023-07-30T06:57:13;100578.84;;;18.86;65.46
76201;BME280;64981;52.930;9.266;2023-07-30T06:59:38;100584.97;;;18.93;65.74
76201;BME280;64981;52.930;9.266;2023-07-30T07:02:04;100589.28;;;18.94;65.58
76201;BME280;64981;52.930;9.266;2023-07-30T07:04:31;100598.81;;;19.08;64.81
76201;BME280;64981;52.930;9.266;2023-07-30T07:06:56;100601.94;;;19.05;65.33
76201;BME280;64981;52.930;9.266;2023-07-30T07:09:22;100603.00;;;19.04;65.66
76201;BME280;64981;52.930;9.266;2023-07-30T07:11:47;100596.19;;;19.02;65.74
76201;BME280;64981;52.930;9.266;2023-07-30T07:14:13;100603.50;;;19.13;65.60
76201;BME280;64981;52.930;9.266;2023-07-30T07:16:38;100597.34;;;19.12;64.69
76201;BME280;64981;52.930;9.266;2023-07-30T07:19:04;100603.50;;;19.13;65.00
76201;BME280;64981;52.930;9.266;2023-07-30T07:21:30;100607.91;;;19.25;65.65
76201;BME280;64981;52.930;9.266;2023-07-30T07:23:56;100608.50;;;19.27;66.43
76201;BME280;64981;52.930;9.266;2023-07-30T07:26:21;100602.31;;;19.27;65.47
76201;BME280;64981;52.930;9.266;2023-07-30T07:28:47;100607.34;;;19.42;65.55
76201;BME280;64981;52.930;9.266;2023-07-30T07:31:12;100611.13;;;19.34;64.38
76201;BME280;64981;52.930;9.266;2023-07-30T07:33:39;100622.28;;;19.31;64.19
76201;BME280;64981;52.930;9.266;2023-07-30T07:36:06;100617.94;;;19.30;65.18
76201;BME280;64981;52.930;9.266;2023-07-30T07:38:33;100608.63;;;19.14;65.28
76201;BME280;64981;52.930;9.266;2023-07-30T07:41:00;100621.91;;;19.27;65.65
76201;BME280;64981;52.930;9.266;2023-07-30T07:43:26;100614.53;;;19.23;65.48
76201;BME280;64981;52.930;9.266;2023-07-30T07:45:52;100616.31;;;19.11;65.45
76201;BME280;64981;52.930;9.266;2023-07-30T07:48:19;100632.09;;;19.19;65.61
76201;BME280;64981;52.930;9.266;2023-07-30T07:50:45;100625.97;;;19.12;65.95
76201;BME280;64981;52.930;9.266;2023-07-30T07:53:10;100636.84;;;19.17;66.48
76201;BME280;64981;52.930;9.266;2023-07-30T07:55:36;100628.44;;;19.13;66.99
76201;BME280;64981;52.930;9.266;2023-07-30T07:58:01;100632.91;;;19.19;66.44
76201;BME280;64981;52.930;9.266;2023-07-30T08:00:27;100635.06;;;19.29;65.80
76201;BME280;64981;52.930;9.266;2023-07-30T08:02:53;100623.53;;;19.10;67.01
76201;BME280;64981;52.930;9.266;2023-07-30T08:05:18;100619.19;;;19.09;66.29
76201;BME280;64981;52.930;9.266;2023-07-30T08:07:46;100627.47;;;19.08;66.97
76201;BME280;64981;52.930;9.266;2023-07-30T08:10:11;100624.47;;;18.98;67.15
76201;BME280;64981;52.930;9.266;2023-07-30T08:12:37;100627.28;;;19.03;67.06
76201;BME280;64981;52.930;9.266;2023-07-30T08:15:03;100625.81;;;19.07;67.35
76201;BME280;64981;52.930;9.266;2023-07-30T08:17:29;100637.78;;;19.04;67.33
76201;BME280;64981;52.930;9.266;2023-07-30T08:19:55;100625.28;;;18.98;67.49
76201;BME280;64981;52.930;9.266;2023-07-30T08:22:20;100626.25;;;19.04;67.64
76201;BME280;64981;52.930;9.266;2023-07-30T08:24:46;100618.53;;;19.14;67.48
76201;BME280;64981;52.930;9.266;2023-07-30T08:27:11;100629.69;;;19.11;67.13
76201;BME280;64981;52.930;9.266;2023-07-30T08:29:37;100631.78;;;19.27;66.23
76201;BME280;64981;52.930;9.266;2023-07-30T08:32:03;100618.84;;;19.24;66.42
76201;BME280;64981;52.930;9.266;2023-07-30T08:34:28;100607.53;;;19.22;65.88
76201;BME280;64981;52.930;9.266;2023-07-30T08:36:54;100619.16;;;19.34;65.35
76201;BME280;64981;52.930;9.266;2023-07-30T08:39:19;100618.03;;;19.23;66.08
76201;BME280;64981;52.930;9.266;2023-07-30T08:41:45;100612.97;;;19.33;65.77
76201;BME280;64981;52.930;9.266;2023-07-30T08:44:12;100602.94;;;19.47;65.25
76201;BME280;64981;52.930;9.266;2023-07-30T08:46:38;100611.63;;;19.43;65.29
76201;BME280;64981;52.930;9.266;2023-07-30T08:49:04;100587.75;;;19.23;66.22
76201;BME280;64981;52.930;9.266;2023-07-30T08:51:31;100612.63;;;19.48;65.76
76201;BME280;64981;52.930;9.266;2023-07-30T08:53:57;100606.56;;;19.53;65.64
76201;BME280;64981;52.930;9.266;2023-07-30T08:56:23;100616.72;;;19.69;64.17
76201;BME280;64981;52.930;9.266;2023-07-30T08:58:50;100604.38;;;19.86;63.68
76201;BME280;64981;52.930;9.266;2023-07-30T09:01:20;100616.22;;;19.60;63.46
76201;BME280;64981;52.930;9.266;2023-07-30T09:03:49;100623.94;;;19.68;64.31
76201;BME280;64981;52.930;9.266;2023-07-30T09:06:16;100612.47;;;19.61;64.26
76201;BME280;64981;52.930;9.266;2023-07-30T09:08:41;100615.81;;;19.75;64.17
76201;BME280;64981;52.930;9.266;2023-07-30T09:11:08;100607.34;;;19.78;64.33
76201;BME280;64981;52.930;9.266;2023-07-30T09:13:41;100619.25;;;19.82;63.01
76201;BME280;64981;52.930;9.266;2023-07-30T09:16:14;100616.91;;;20.04;62.85
76201;BME280;64981;52.930;9.266;2023-07-30T09:18:41;100609.41;;;19.94;62.46
76201;BME280;64981;52.930;9.266;2023-07-30T09:21:07;100606.34;;;19.91;62.20
76201;BME280;64981;52.930;9.266;2023-07-30T09:23:40;100610.59;;;19.98;63.28
76201;BME280;64981;52.930;9.266;2023-07-30T09:26:06;100624.25;;;20.08;63.06
76201;BME280;64981;52.930;9.266;2023-07-30T09:28:32;100632.81;;;20.17;62.32
76201;BME280;64981;52.930;9.266;2023-07-30T09:31:07;100637.00;;;20.13;62.05
76201;BME280;64981;52.930;9.266;2023-07-30T09:33:33;100632.28;;;20.26;60.62
76201;BME280;64981;52.930;9.266;2023-07-30T09:36:03;100634.72;;;20.28;61.35
76201;BME280;64981;52.930;9.266;2023-07-30T09:38:30;100630.41;;;20.27;61.06
76201;BME280;64981;52.930;9.266;2023-07-30T09:41:02;100631.56;;;20.31;60.28
76201;BME280;64981;52.930;9.266;2023-07-30T09:43:29;100640.81;;;20.35;59.69
76201;BME280;64981;52.930;9.266;2023-07-30T09:46:02;100641.69;;;20.17;60.33
76201;BME280;64981;52.930;9.266;2023-07-30T09:48:31;100638.75;;;20.19;59.83
76201;BME280;64981;52.930;9.266;2023-07-30T09:50:59;100648.94;;;20.28;60.48
76201;BME280;64981;52.930;9.266;2023-07-30T09:53:27;100647.50;;;20.14;60.98
76201;BME280;64981;52.930;9.266;2023-07-30T09:55:54;100635.44;;;20.05;60.94
76201;BME280;64981;52.930;9.266;2023-07-30T09:58:20;100653.41;;;20.05;60.80
76201;BME280;64981;52.930;9.266;2023-07-30T10:00:48;100656.44;;;20.08;60.45
76201;BME280;64981;52.930;9.266;2023-07-30T10:03:15;100664.63;;;20.13;60.92
76201;BME280;64981;52.930;9.266;2023-07-30T10:05:44;100669.34;;;20.00;61.88
76201;BME280;64981;52.930;9.266;2023-07-30T10:08:17;100663.53;;;20.03;61.45
76201;BME280;64981;52.930;9.266;2023-07-30T10:10:49;100668.72;;;20.16;60.83
76201;BME280;64981;52.930;9.266;2023-07-30T10:13:16;100678.34;;;20.05;61.16
76201;BME280;64981;52.930;9.266;2023-07-30T10:15:43;100667.34;;;19.95;61.06
76201;BME280;64981;52.930;9.266;2023-07-30T10:18:09;100688.41;;;20.10;61.04
76201;BME280;64981;52.930;9.266;2023-07-30T10:20:35;100691.97;;;20.04;60.56
76201;BME280;64981;52.930;9.266;2023-07-30T10:23:01;100692.34;;;20.07;61.13
76201;BME280;64981;52.930;9.266;2023-07-30T10:25:45;100692.34;;;20.07;61.80
76201;BME280;64981;52.930;9.266;2023-07-30T10:28:33;100696.19;;;20.29;60.76
76201;BME280;64981;52.930;9.266;2023-07-30T10:31:02;100663.28;;;20.22;59.64
76201;BME280;64981;52.930;9.266;2023-07-30T10:33:49;100685.22;;;20.31;59.83
76201;BME280;64981;52.930;9.266;2023-07-30T10:36:30;100698.50;;;20.26;60.45
76201;BME280;64981;52.930;9.266;2023-07-30T10:38:56;100690.22;;;20.46;59.17
76201;BME280;64981;52.930;9.266;2023-07-30T10:41:22;100695.50;;;20.34;59.69
76201;BME280;64981;52.930;9.266;2023-07-30T10:43:50;100684.16;;;20.20;60.88
76201;BME280;64981;52.930;9.266;2023-07-30T10:46:18;100682.06;;;20.04;60.96
76201;BME280;64981;52.930;9.266;2023-07-30T10:48:46;100680.84;;;20.18;59.16
76201;BME280;64981;52.930;9.266;2023-07-30T10:51:14;100684.69;;;20.11;59.90
76201;BME280;64981;52.930;9.266;2023-07-30T10:53:42;100664.59;;;20.02;61.25
76201;BME280;64981;52.930;9.266;2023-07-30T10:56:09;100654.28;;;20.17;60.92
76201;BME280;64981;52.930;9.266;2023-07-30T10:58:36;100665.09;;;20.40;59.18
76201;BME280;64981;52.930;9.266;2023-07-30T11:01:03;100662.44;;;20.40;58.14
76201;BME280;64981;52.930;9.266;2023-07-30T11:03:30;100660.59;;;20.52;57.89
76201;BME280;64981;52.930;9.266;2023-07-30T11:05:57;100645.59;;;20.63;58.30
76201;BME280;64981;52.930;9.266;2023-07-30T11:08:37;100655.41;;;20.80;58.24
76201;BME280;64981;52.930;9.266;2023-07-30T11:11:04;100658.81;;;20.87;56.47
76201;BME280;64981;52.930;9.266;2023-07-30T11:13:29;100651.31;;;20.78;57.32
76201;BME280;64981;52.930;9.266;2023-07-30T11:16:00;100654.63;;;20.91;56.42
76201;BME280;64981;52.930;9.266;2023-07-30T11:18:31;100659.88;;;21.10;55.93
76201;BME280;64981;52.930;9.266;2023-07-30T11:21:03;100646.94;;;21.18;55.62
76201;BME280;64981;52.930;9.266;2023-07-30T11:23:29;100646.56;;;21.15;55.68
76201;BME280;64981;52.930;9.266;2023-07-30T11:25:54;100652.47;;;21.23;55.91
76201;BME280;64981;52.930;9.266;2023-07-30T11:28:28;100648.03;;;21.17;56.76
76201;BME280;64981;52.930;9.266;2023-07-30T11:30:58;100649.59;;;21.07;55.78
76201;BME280;64981;52.930;9.266;2023-07-30T11:33:25;100640.88;;;21.23;56.58
76201;BME280;64981;52.930;9.266;2023-07-30T11:35:51;100647.91;;;21.35;55.15
76201;BME280;64981;52.930;9.266;2023-07-30T11:38:17;100642.84;;;21.27;55.01
76201;BME280;64981;52.930;9.266;2023-07-30T11:40:46;100635.38;;;21.41;55.86
76201;BME280;64981;52.930;9.266;2023-07-30T11:43:13;100627.47;;;21.23;54.06
76201;BME280;64981;52.930;9.266;2023-07-30T11:45:38;100644.16;;;21.36;55.62
76201;BME280;64981;52.930;9.266;2023-07-30T11:48:07;100642.03;;;21.38;54.05
76201;BME280;64981;52.930;9.266;2023-07-30T11:50:47;100640.13;;;21.62;54.39
76201;BME280;64981;52.930;9.266;2023-07-30T11:53:13;100642.94;;;21.56;54.68
76201;BME280;64981;52.930;9.266;2023-07-30T11:55:41;100638.03;;;21.64;51.12
76201;BME280;64981;52.930;9.266;2023-07-30T11:58:09;100642.34;;;21.65;50.97
76201;BME280;64981;52.930;9.266;2023-07-30T12:00:36;100640.72;;;21.64;52.94
76201;BME280;64981;52.930;9.266;2023-07-30T12:03:04;100642.47;;;21.59;52.40
76201;BME280;64981;52.930;9.266;2023-07-30T12:05:32;100632.09;;;21.51;53.40
76201;BME280;64981;52.930;9.266;2023-07-30T12:07:59;100646.28;;;21.74;53.52
76201;BME280;64981;52.930;9.266;2023-07-30T12:10:28;100657.03;;;21.86;53.24
76201;BME280;64981;52.930;9.266;2023-07-30T12:12:53;100638.63;;;21.43;52.18
76201;BME280;64981;52.930;9.266;2023-07-30T12:15:19;100653.44;;;21.69;52.59
76201;BME280;64981;52.930;9.266;2023-07-30T12:17:45;100646.56;;;21.50;52.37
76201;BME280;64981;52.930;9.266;2023-07-30T12:20:11;100654.88;;;21.48;53.38
76201;BME280;64981;52.930;9.266;2023-07-30T12:22:37;100645.19;;;21.35;52.66
76201;BME280;64981;52.930;9.266;2023-07-30T12:25:04;100646.50;;;21.33;53.40
76201;BME280;64981;52.930;9.266;2023-07-30T12:27:30;100640.41;;;21.26;53.75
76201;BME280;64981;52.930;9.266;2023-07-30T12:29:56;100647.91;;;21.35;50.36
76201;BME280;64981;52.930;9.266;2023-07-30T12:32:21;100643.47;;;21.29;49.97
76201;BME280;64981;52.930;9.266;2023-07-30T12:34:47;100647.44;;;21.27;50.47
76201;BME280;64981;52.930;9.266;2023-07-30T12:37:13;100640.25;;;21.56;49.50
76201;BME280;64981;52.930;9.266;2023-07-30T12:39:39;100637.25;;;21.52;49.74
76201;BME280;64981;52.930;9.266;2023-07-30T12:42:04;100626.94;;;21.61;49.31
76201;BME280;64981;52.930;9.266;2023-07-30T12:44:30;100623.34;;;21.43;49.48
76201;BME280;64981;52.930;9.266;2023-07-30T12:46:55;100627.22;;;21.24;49.87